Bald Hill, Kentucky
Current Conditions -  °F | °C
As of 7:35 AM on Friday 24 Oct 2014 (Local Time) from KFGX Reporting Station
Haze Haze  
Wind Chill: 38°   Ceiling: Unl
Heat Index: 38°   Visibility: 4mi
Dew Point: 38°   Wind: 3mph
Humidity: 98%   Direction: 260°W
Pressure: 30.15"   Gusts: NA
Location:  38.436°N, 83.6931°W
Report Text: KFGX 241135Z AUTO 26003KT 4SM BR CLR 04/03 A3015 RMK AO2 T00350032
Loading
Personal Weather Stations






























Interactive Weather Map
Tropical Storm Tracking
New forecast layout! Learn more

10-Day Weather Forecast

Advertisements
Track Severe Weather on mobile